createdAt,value
2019-05-19T00:00:50.277Z,78.47
2019-05-19T00:03:22.645Z,73.17
2019-05-19T00:05:54.846Z,77.23
2019-05-19T00:08:27.110Z,74.77
2019-05-19T00:10:59.364Z,75.57
2019-05-19T00:13:31.588Z,78.50
2019-05-19T00:16:04.876Z,81.40
2019-05-19T00:18:37.468Z,79.67
2019-05-19T00:21:09.689Z,79.37
2019-05-19T00:23:41.956Z,76.00
2019-05-19T00:26:14.261Z,81.37
2019-05-19T00:28:46.493Z,84.60
2019-05-19T00:31:18.790Z,84.33
2019-05-19T00:33:51.071Z,84.23
2019-05-19T00:36:23.354Z,83.60
2019-05-19T00:38:55.603Z,84.30
2019-05-19T00:41:27.832Z,89.13
2019-05-19T00:44:00.233Z,89.10
2019-05-19T00:46:32.551Z,88.77
2019-05-19T00:49:04.820Z,83.97
2019-05-19T00:51:37.010Z,86.10
2019-05-19T00:54:09.231Z,94.83
2019-05-19T00:56:41.549Z,94.13
2019-05-19T00:59:15.795Z,99.40
2019-05-19T01:01:48.074Z,89.93
2019-05-19T01:04:20.345Z,93.30
2019-05-19T01:06:52.599Z,94.43
2019-05-19T01:09:24.832Z,103.73
2019-05-19T01:11:57.080Z,98.73
2019-05-19T01:14:29.604Z,93.80
2019-05-19T01:17:02.275Z,97.23
2019-05-19T01:19:34.880Z,92.40
2019-05-19T01:22:07.107Z,105.63
2019-05-19T01:24:39.523Z,107.73
2019-05-19T01:27:11.753Z,98.00
2019-05-19T01:29:43.990Z,96.03
2019-05-19T01:32:16.234Z,98.23
2019-05-19T01:34:48.460Z,103.13
2019-05-19T01:37:20.749Z,105.60
2019-05-19T01:39:53.003Z,108.03
2019-05-19T01:42:25.301Z,94.37
2019-05-19T01:44:57.540Z,98.20
2019-05-19T01:47:29.845Z,103.53
2019-05-19T01:50:17.042Z,102.37
2019-05-19T01:52:35.971Z,109.43
2019-05-19T01:55:08.193Z,109.63
2019-05-19T01:57:42.747Z,111.70
2019-05-19T02:00:15.021Z,112.90
2019-05-19T02:02:47.324Z,112.60
2019-05-19T02:05:19.508Z,100.00
2019-05-19T02:07:51.950Z,102.50
2019-05-19T02:10:24.239Z,112.37
2019-05-19T02:12:56.461Z,101.43
2019-05-19T02:15:28.680Z,97.77
2019-05-19T02:18:00.926Z,106.20
2019-05-19T02:20:34.111Z,112.10
2019-05-19T02:23:06.393Z,101.97
2019-05-19T02:25:38.627Z,110.27
2019-05-19T02:28:10.917Z,99.83
2019-05-19T02:30:43.138Z,115.73
2019-05-19T02:33:15.382Z,105.23
2019-05-19T02:35:47.587Z,104.27
2019-05-19T02:38:20.075Z,108.83
2019-05-19T02:40:52.300Z,111.97
2019-05-19T02:43:24.558Z,108.87
2019-05-19T02:45:56.792Z,113.23
2019-05-19T02:48:28.998Z,114.60
2019-05-19T02:51:01.244Z,119.90
2019-05-19T02:53:33.493Z,121.83
2019-05-19T02:56:05.727Z,108.07
2019-05-19T02:58:38.024Z,125.73
2019-05-19T03:01:10.235Z,116.00
2019-05-19T03:03:42.578Z,117.67
2019-05-19T03:06:14.839Z,115.60
2019-05-19T03:08:47.063Z,112.67
2019-05-19T03:11:19.320Z,120.87
2019-05-19T03:13:51.532Z,121.43
2019-05-19T03:16:23.754Z,124.10
2019-05-19T03:18:55.974Z,120.07
2019-05-19T03:21:28.234Z,118.20
2019-05-19T03:24:00.434Z,122.30
2019-05-19T03:26:32.698Z,119.40
2019-05-19T03:29:04.954Z,123.00
2019-05-19T03:31:37.182Z,118.40
2019-05-19T03:34:09.453Z,125.03
2019-05-19T03:36:41.690Z,123.60
2019-05-19T03:39:13.915Z,112.27
2019-05-19T03:41:46.167Z,117.17
2019-05-19T03:44:18.406Z,120.53
2019-05-19T03:46:50.679Z,107.63
2019-05-19T03:49:22.966Z,109.47
2019-05-19T03:51:55.309Z,108.50
2019-05-19T03:54:27.534Z,126.77
2019-05-19T03:57:00.781Z,114.47
2019-05-19T03:59:34.157Z,109.37
2019-05-19T04:02:06.420Z,102.53
2019-05-19T04:04:38.622Z,111.83
2019-05-19T04:07:10.894Z,119.33
2019-05-19T04:09:43.120Z,109.97
2019-05-19T04:12:15.360Z,116.03
2019-05-19T04:14:47.605Z,105.20
2019-05-19T04:17:20.799Z,119.47
2019-05-19T04:19:53.076Z,123.90
2019-05-19T04:22:25.301Z,115.67
2019-05-19T04:24:57.522Z,124.37
2019-05-19T04:27:29.782Z,122.20
2019-05-19T04:30:02.050Z,124.50
2019-05-19T04:32:34.881Z,116.70
2019-05-19T04:35:07.139Z,121.57
2019-05-19T04:37:39.355Z,111.53
2019-05-19T04:40:11.572Z,107.57
2019-05-19T04:42:43.814Z,116.47
2019-05-19T04:45:16.069Z,114.37
2019-05-19T04:47:48.308Z,108.77
2019-05-19T04:50:20.650Z,123.17
2019-05-19T04:52:52.885Z,122.23
2019-05-19T04:55:25.182Z,117.53
2019-05-19T04:57:57.407Z,115.00
2019-05-19T05:00:29.675Z,119.60
2019-05-19T05:03:01.919Z,106.47
2019-05-19T05:05:34.185Z,111.63
2019-05-19T05:08:06.408Z,117.50
2019-05-19T05:10:38.640Z,119.60
2019-05-19T05:13:10.866Z,129.50
2019-05-19T05:15:43.144Z,116.77
2019-05-19T05:18:17.421Z,108.90
2019-05-19T05:20:49.706Z,108.20
2019-05-19T05:23:22.009Z,103.80
2019-05-19T05:25:54.442Z,109.07
2019-05-19T05:28:26.651Z,111.67
2019-05-19T05:30:59.108Z,109.20
2019-05-19T05:33:31.329Z,96.20
2019-05-19T05:36:03.560Z,96.03
2019-05-19T05:38:35.772Z,96.93
2019-05-19T05:41:08.026Z,98.10
2019-05-19T05:43:41.324Z,91.30
2019-05-19T05:46:13.560Z,86.57
2019-05-19T05:48:45.798Z,87.40
2019-05-19T05:51:18.033Z,90.67
2019-05-19T05:53:50.238Z,85.97
2019-05-19T05:56:22.468Z,84.00
2019-05-19T05:58:54.758Z,86.50
2019-05-19T06:01:26.962Z,86.10
2019-05-19T06:03:59.215Z,86.93
2019-05-19T06:06:33.479Z,78.93
2019-05-19T06:09:05.789Z,82.87
2019-05-19T06:11:38.028Z,77.60
2019-05-19T06:14:10.280Z,85.83
2019-05-19T06:16:43.628Z,80.63
2019-05-19T06:19:15.845Z,81.67
2019-05-19T06:21:48.087Z,85.83
2019-05-19T06:24:20.323Z,78.57
2019-05-19T06:26:52.539Z,92.67
2019-05-19T06:29:24.829Z,88.33
2019-05-19T06:31:57.067Z,89.93
2019-05-19T06:34:29.614Z,80.83
2019-05-19T06:37:02.113Z,91.70
2019-05-19T06:39:34.428Z,82.17
2019-05-19T06:42:06.631Z,91.70
2019-05-19T06:44:38.831Z,90.20
2019-05-19T06:47:11.173Z,87.23
2019-05-19T06:49:43.394Z,83.77
2019-05-19T06:52:15.615Z,82.07
2019-05-19T06:54:47.870Z,82.77
2019-05-19T06:57:20.098Z,80.17
2019-05-19T06:59:52.307Z,85.03
2019-05-19T07:02:24.592Z,71.80
2019-05-19T07:04:56.781Z,78.70
2019-05-19T07:07:29.028Z,75.87
2019-05-19T07:10:02.844Z,75.63
2019-05-19T07:12:36.132Z,82.97
2019-05-19T07:15:08.469Z,84.17
2019-05-19T07:17:40.738Z,81.77
2019-05-19T07:20:12.965Z,81.73
2019-05-19T07:22:45.191Z,73.53
2019-05-19T07:25:17.288Z,77.43
2019-05-19T07:27:49.631Z,76.07
2019-05-19T07:30:21.922Z,69.13
2019-05-19T07:32:54.178Z,67.83
2019-05-19T07:35:26.497Z,64.73
2019-05-19T07:37:58.924Z,63.97
2019-05-19T07:40:31.157Z,65.37
2019-05-19T07:43:03.395Z,65.63
2019-05-19T07:45:35.706Z,64.27
2019-05-19T07:48:07.972Z,65.60
2019-05-19T07:50:40.142Z,60.13
2019-05-19T07:53:12.420Z,66.37
2019-05-19T07:55:44.662Z,64.33
2019-05-19T07:58:16.937Z,60.97
2019-05-19T08:00:49.187Z,60.77
2019-05-19T08:03:21.404Z,65.37
2019-05-19T08:05:56.794Z,61.73
2019-05-19T08:08:27.561Z,59.33
2019-05-19T08:10:59.805Z,56.63
2019-05-19T08:13:32.097Z,63.10
2019-05-19T08:16:04.441Z,52.80
2019-05-19T08:18:36.643Z,56.57
2019-05-19T08:21:08.881Z,60.03
2019-05-19T08:23:41.132Z,62.63
2019-05-19T08:26:13.410Z,59.67
2019-05-19T08:28:45.720Z,63.20
2019-05-19T08:31:17.938Z,57.43
2019-05-19T08:33:50.219Z,58.00
2019-05-19T08:36:22.471Z,58.70
2019-05-19T08:38:54.584Z,56.40
2019-05-19T08:41:26.828Z,57.67
2019-05-19T08:43:59.128Z,57.57
2019-05-19T08:46:31.382Z,56.87
2019-05-19T08:49:03.785Z,58.93
2019-05-19T08:51:38.253Z,59.33
2019-05-19T08:54:15.136Z,58.23
2019-05-19T08:56:44.441Z,61.07
2019-05-19T08:59:16.988Z,59.37
2019-05-19T09:01:49.215Z,55.47
2019-05-19T09:04:21.477Z,53.47
2019-05-19T09:06:53.778Z,62.33
2019-05-19T09:09:26.192Z,53.53
2019-05-19T09:11:58.437Z,50.63
2019-05-19T09:14:30.724Z,52.47
2019-05-19T09:17:03.025Z,53.00
2019-05-19T09:19:35.558Z,52.37
2019-05-19T09:22:07.801Z,54.23
2019-05-19T09:24:40.032Z,57.23
2019-05-19T09:27:12.408Z,52.50
2019-05-19T09:29:44.648Z,56.60
2019-05-19T09:32:16.873Z,50.83
2019-05-19T09:34:49.178Z,58.23
2019-05-19T09:37:21.453Z,52.47
2019-05-19T09:39:53.744Z,54.97
2019-05-19T09:42:26.010Z,53.13
2019-05-19T09:44:58.381Z,53.70
2019-05-19T09:47:30.702Z,53.90
2019-05-19T09:50:02.946Z,55.43
2019-05-19T09:52:35.163Z,51.93
2019-05-19T09:55:07.236Z,55.03
2019-05-19T09:57:40.507Z,51.73
2019-05-19T10:00:12.805Z,51.07
2019-05-19T10:02:45.117Z,48.97
2019-05-19T10:05:17.561Z,49.03
2019-05-19T10:07:49.883Z,51.37
2019-05-19T10:10:22.182Z,47.83
2019-05-19T10:12:54.602Z,49.57
2019-05-19T10:15:26.906Z,54.37
2019-05-19T10:17:59.141Z,57.73
2019-05-19T10:20:31.407Z,54.17
2019-05-19T10:23:03.756Z,52.03
2019-05-19T10:25:36.067Z,55.73
2019-05-19T10:28:08.329Z,50.83
2019-05-19T10:30:40.886Z,53.63
2019-05-19T10:33:13.118Z,53.10
2019-05-19T10:35:45.368Z,51.00
2019-05-19T10:38:17.939Z,54.50
2019-05-19T10:40:51.312Z,51.30
2019-05-19T10:43:23.768Z,53.97
2019-05-19T10:45:56.019Z,52.80
2019-05-19T10:48:28.328Z,52.20
2019-05-19T10:51:00.557Z,52.20
2019-05-19T10:53:32.838Z,53.53
2019-05-19T10:56:05.316Z,51.67
2019-05-19T10:58:37.621Z,50.83
2019-05-19T11:01:09.898Z,50.20
2019-05-19T11:03:42.361Z,50.47
2019-05-19T11:06:14.724Z,48.50
2019-05-19T11:08:47.022Z,53.30
2019-05-19T11:11:19.309Z,51.97
2019-05-19T11:13:51.672Z,49.43
2019-05-19T11:16:23.891Z,45.83
2019-05-19T11:18:56.124Z,48.90
2019-05-19T11:21:28.397Z,45.40
2019-05-19T11:24:00.752Z,48.10
2019-05-19T11:26:33.117Z,54.87
2019-05-19T11:29:05.359Z,48.07
2019-05-19T11:31:37.619Z,47.40
2019-05-19T11:34:09.986Z,45.97
2019-05-19T11:36:42.309Z,49.37
2019-05-19T11:39:14.544Z,43.40
2019-05-19T11:41:46.795Z,49.60
2019-05-19T11:44:19.198Z,42.30
2019-05-19T11:46:51.429Z,46.47
2019-05-19T11:49:23.721Z,43.37
2019-05-19T11:51:55.920Z,44.07
2019-05-19T11:54:28.187Z,43.87
2019-05-19T11:57:00.566Z,40.30
2019-05-19T11:59:32.804Z,42.07
2019-05-19T12:02:04.858Z,38.63
2019-05-19T12:04:37.740Z,37.88
2019-05-19T12:07:10.564Z,38.30
2019-05-19T12:09:43.468Z,37.15
2019-05-19T12:12:16.307Z,42.25
2019-05-19T12:14:49.351Z,42.25
2019-05-19T12:17:22.169Z,40.90
2019-05-19T12:19:55.270Z,41.10
2019-05-19T12:22:28.205Z,42.53
2019-05-19T12:25:01.044Z,41.83
2019-05-19T12:27:33.896Z,44.50
2019-05-19T12:30:06.724Z,43.08
2019-05-19T12:32:39.775Z,40.88
2019-05-19T12:35:12.602Z,43.42
2019-05-19T12:37:45.548Z,43.13
2019-05-19T12:40:18.431Z,42.48
2019-05-19T12:42:51.385Z,38.70
2019-05-19T12:45:26.691Z,44.65
2019-05-19T12:47:59.543Z,42.33
2019-05-19T12:50:32.353Z,43.52
2019-05-19T12:53:05.320Z,39.53
2019-05-19T12:55:38.056Z,41.42
2019-05-19T12:58:11.500Z,40.25
2019-05-19T13:00:44.386Z,40.95
2019-05-19T13:03:18.857Z,44.23
2019-05-19T13:05:51.791Z,40.85
2019-05-19T13:08:24.797Z,44.35
2019-05-19T13:10:57.447Z,43.92
2019-05-19T13:13:30.237Z,42.23
2019-05-19T13:16:03.140Z,43.78
2019-05-19T13:18:38.255Z,43.83
2019-05-19T13:21:11.076Z,46.55
2019-05-19T13:23:43.940Z,44.10
2019-05-19T13:26:16.811Z,43.92
2019-05-19T13:28:49.680Z,45.00
2019-05-19T13:31:24.542Z,39.83
2019-05-19T13:33:57.482Z,41.45
2019-05-19T13:36:30.336Z,43.20
2019-05-19T13:39:03.190Z,44.55
2019-05-19T13:41:36.983Z,43.98
2019-05-19T13:44:09.858Z,43.65
2019-05-19T13:46:42.649Z,42.35
2019-05-19T13:49:15.603Z,44.75
2019-05-19T13:51:48.420Z,41.28
2019-05-19T13:54:21.316Z,42.55
2019-05-19T13:56:54.181Z,39.90
2019-05-19T13:59:26.980Z,41.15
2019-05-19T14:01:59.850Z,44.50
2019-05-19T14:04:32.927Z,43.10
2019-05-19T14:07:05.914Z,43.10
2019-05-19T14:09:38.226Z,42.97
2019-05-19T14:12:10.493Z,42.33
2019-05-19T14:14:42.702Z,42.27
2019-05-19T14:17:15.158Z,45.67
2019-05-19T14:19:47.433Z,44.10
2019-05-19T14:22:19.687Z,46.00
2019-05-19T14:24:51.928Z,41.50
2019-05-19T14:27:30.580Z,42.07
2019-05-19T14:29:58.197Z,41.33
2019-05-19T14:32:30.548Z,38.00
2019-05-19T14:35:02.787Z,38.53
2019-05-19T14:37:35.004Z,40.23
2019-05-19T14:40:07.495Z,38.93
2019-05-19T14:42:41.764Z,38.90
2019-05-19T14:45:14.084Z,38.13
2019-05-19T14:47:46.314Z,42.03
2019-05-19T14:50:18.604Z,45.80
2019-05-19T14:52:50.851Z,40.73
2019-05-19T14:55:23.088Z,40.27
2019-05-19T14:57:55.382Z,44.53
2019-05-19T15:00:27.616Z,45.67
2019-05-19T15:02:59.838Z,44.93
2019-05-19T15:05:32.142Z,43.30
2019-05-19T15:08:04.810Z,42.50
2019-05-19T15:10:37.265Z,41.80
2019-05-19T15:13:09.533Z,40.37
2019-05-19T15:15:41.781Z,39.53
2019-05-19T15:18:16.384Z,45.77
2019-05-19T15:20:48.589Z,40.47
2019-05-19T15:23:20.874Z,41.13
2019-05-19T15:25:53.072Z,40.63
2019-05-19T15:28:25.314Z,41.83
2019-05-19T15:30:57.592Z,41.43
2019-05-19T15:33:37.755Z,43.13
2019-05-19T15:36:03.941Z,49.20
2019-05-19T15:38:36.224Z,44.90
2019-05-19T15:41:08.482Z,42.43
2019-05-19T15:43:40.688Z,47.17
2019-05-19T15:46:12.948Z,45.07
2019-05-19T15:48:45.230Z,44.90
2019-05-19T15:51:27.841Z,45.97
2019-05-19T15:53:51.435Z,49.20
2019-05-19T15:56:23.677Z,45.90
2019-05-19T15:58:56.002Z,50.07
2019-05-19T16:01:28.229Z,45.47
2019-05-19T16:04:00.446Z,46.20
2019-05-19T16:06:32.685Z,42.63
2019-05-19T16:09:04.934Z,47.87
2019-05-19T16:11:38.787Z,45.27
2019-05-19T16:14:11.026Z,46.37
2019-05-19T16:16:43.280Z,42.83
2019-05-19T16:19:15.550Z,43.70
2019-05-19T16:21:47.953Z,43.60
2019-05-19T16:24:20.264Z,47.00
2019-05-19T16:26:52.947Z,40.47
2019-05-19T16:29:29.742Z,43.17
2019-05-19T16:32:02.018Z,45.43
2019-05-19T16:34:35.994Z,42.90
2019-05-19T16:37:08.522Z,41.80
2019-05-19T16:39:41.445Z,41.57
2019-05-19T16:42:13.676Z,42.17
2019-05-19T16:44:45.988Z,41.83
2019-05-19T16:47:18.261Z,42.13
2019-05-19T16:49:51.514Z,41.77
2019-05-19T16:52:23.870Z,37.10
2019-05-19T16:54:56.203Z,38.20
2019-05-19T16:57:28.692Z,36.13
2019-05-19T17:00:00.708Z,32.10
2019-05-19T17:02:34.718Z,34.00
2019-05-19T17:05:07.007Z,34.57
2019-05-19T17:07:39.570Z,33.33
2019-05-19T17:10:11.848Z,35.87
2019-05-19T17:12:44.183Z,35.77
2019-05-19T17:15:17.585Z,34.40
2019-05-19T17:17:49.636Z,38.97
2019-05-19T17:20:22.116Z,38.73
2019-05-19T17:22:54.648Z,35.40
2019-05-19T17:25:27.699Z,40.80
2019-05-19T17:28:00.024Z,39.87
2019-05-19T17:30:32.719Z,40.97
2019-05-19T17:33:04.994Z,38.87
2019-05-19T17:35:37.319Z,40.67
2019-05-19T17:38:09.575Z,39.00
2019-05-19T17:40:41.884Z,45.37
2019-05-19T17:43:14.123Z,39.57
2019-05-19T17:45:46.568Z,41.77
2019-05-19T17:48:26.065Z,48.70
2019-05-19T17:50:52.786Z,45.03
2019-05-19T17:53:25.012Z,49.23
2019-05-19T17:55:57.349Z,52.00
2019-05-19T17:58:29.662Z,53.27
2019-05-19T18:01:02.152Z,50.80
2019-05-19T18:03:34.646Z,51.63
2019-05-19T18:06:06.864Z,56.23
2019-05-19T18:08:39.155Z,59.20
2019-05-19T18:11:11.420Z,57.07
2019-05-19T18:13:43.729Z,59.77
2019-05-19T18:16:15.941Z,58.33
2019-05-19T18:18:48.195Z,57.57
2019-05-19T18:21:20.430Z,54.37
2019-05-19T18:23:52.660Z,58.90
2019-05-19T18:26:24.932Z,58.13
2019-05-19T18:28:57.159Z,51.50
2019-05-19T18:31:31.247Z,63.60
2019-05-19T18:34:03.959Z,53.13
2019-05-19T18:36:36.205Z,56.93
2019-05-19T18:39:08.755Z,54.97
2019-05-19T18:41:41.024Z,55.13
2019-05-19T18:44:13.274Z,46.40
2019-05-19T18:46:45.517Z,48.23
2019-05-19T18:49:17.742Z,47.13
2019-05-19T18:51:49.983Z,44.73
2019-05-19T18:54:22.291Z,46.40
2019-05-19T18:56:54.552Z,46.33
2019-05-19T18:59:26.837Z,46.17
2019-05-19T19:02:01.361Z,43.03
2019-05-19T19:04:33.908Z,46.37
2019-05-19T19:07:06.117Z,47.87
2019-05-19T19:09:38.409Z,46.90
2019-05-19T19:12:10.749Z,45.90
2019-05-19T19:14:42.979Z,44.57
2019-05-19T19:17:15.272Z,44.03
2019-05-19T19:19:47.523Z,40.40
2019-05-19T19:22:21.795Z,40.60
2019-05-19T19:24:54.074Z,40.63
2019-05-19T19:27:28.559Z,42.33
2019-05-19T19:30:04.005Z,47.13
2019-05-19T19:32:34.861Z,40.87
2019-05-19T19:35:07.133Z,39.03
2019-05-19T19:37:39.419Z,37.80
2019-05-19T19:40:11.724Z,40.90
2019-05-19T19:42:44.057Z,36.47
2019-05-19T19:45:16.350Z,31.23
2019-05-19T19:47:48.600Z,35.47
2019-05-19T19:50:20.844Z,35.03
2019-05-19T19:52:53.040Z,34.73
2019-05-19T19:55:25.286Z,34.43
2019-05-19T19:57:57.574Z,36.87
2019-05-19T20:00:29.913Z,31.80
2019-05-19T20:03:02.209Z,30.27
2019-05-19T20:05:34.475Z,32.57
2019-05-19T20:08:06.946Z,35.23
2019-05-19T20:10:39.241Z,31.80
2019-05-19T20:13:11.534Z,35.03
2019-05-19T20:15:43.968Z,32.20
2019-05-19T20:18:16.413Z,34.83
2019-05-19T20:20:48.843Z,33.77
2019-05-19T20:23:21.124Z,34.53
2019-05-19T20:25:53.438Z,34.60
2019-05-19T20:28:25.688Z,37.17
2019-05-19T20:30:58.058Z,34.53
2019-05-19T20:33:30.549Z,33.27
2019-05-19T20:36:02.914Z,34.00
2019-05-19T20:38:35.173Z,31.70
2019-05-19T20:41:07.450Z,34.67
2019-05-19T20:43:39.848Z,35.50
2019-05-19T20:46:12.082Z,32.60
2019-05-19T20:48:44.357Z,37.50
2019-05-19T20:51:16.611Z,35.73
2019-05-19T20:53:49.013Z,38.33
2019-05-19T20:56:21.270Z,39.93
2019-05-19T20:58:53.574Z,39.93
2019-05-19T21:01:26.066Z,42.03
2019-05-19T21:03:58.304Z,42.87
2019-05-19T21:06:30.632Z,41.17
2019-05-19T21:09:02.873Z,39.27
2019-05-19T21:11:36.565Z,38.60
2019-05-19T21:14:08.834Z,38.33
2019-05-19T21:16:41.130Z,36.80
2019-05-19T21:19:15.075Z,37.87
2019-05-19T21:21:47.292Z,37.07
2019-05-19T21:24:19.527Z,33.93
2019-05-19T21:26:51.823Z,37.47
2019-05-19T21:29:24.102Z,33.70
2019-05-19T21:31:56.315Z,39.27
2019-05-19T21:34:28.570Z,33.73
2019-05-19T21:37:00.796Z,35.27
2019-05-19T21:39:33.024Z,38.30
2019-05-19T21:42:05.337Z,37.40
2019-05-19T21:44:37.645Z,35.00
2019-05-19T21:47:09.889Z,33.43
2019-05-19T21:49:42.136Z,39.57
2019-05-19T21:52:14.410Z,34.73
2019-05-19T21:54:46.655Z,34.40
2019-05-19T21:57:18.919Z,31.63
2019-05-19T21:59:51.319Z,32.53
2019-05-19T22:02:23.601Z,33.60
2019-05-19T22:04:55.883Z,31.57
2019-05-19T22:07:28.104Z,37.13
2019-05-19T22:10:00.343Z,29.63
2019-05-19T22:12:32.617Z,31.37
2019-05-19T22:15:05.903Z,36.23
2019-05-19T22:17:38.330Z,38.67
2019-05-19T22:20:10.548Z,34.50
2019-05-19T22:22:43.891Z,33.60
2019-05-19T22:25:15.998Z,32.13
2019-05-19T22:27:48.338Z,35.37
2019-05-19T22:30:20.610Z,36.77
2019-05-19T22:32:52.853Z,33.10
2019-05-19T22:35:25.095Z,32.27
2019-05-19T22:37:57.427Z,34.70
2019-05-19T22:40:29.457Z,34.23
2019-05-19T22:43:01.699Z,37.17
2019-05-19T22:45:33.940Z,35.20
2019-05-19T22:48:06.167Z,35.53
2019-05-19T22:50:38.444Z,36.20
2019-05-19T22:53:10.664Z,31.23
2019-05-19T22:55:42.866Z,32.13
2019-05-19T22:58:15.155Z,31.53
2019-05-19T23:00:47.402Z,33.43
2019-05-19T23:03:19.639Z,33.53
2019-05-19T23:05:51.885Z,34.30
2019-05-19T23:08:23.963Z,29.73
2019-05-19T23:10:56.170Z,30.43
2019-05-19T23:13:28.577Z,31.80
2019-05-19T23:16:00.872Z,26.83
2019-05-19T23:18:33.382Z,30.93
2019-05-19T23:21:05.631Z,32.03
2019-05-19T23:23:37.937Z,27.63
2019-05-19T23:26:10.160Z,30.13
2019-05-19T23:28:43.449Z,31.83
2019-05-19T23:31:15.664Z,30.80
2019-05-19T23:33:47.892Z,32.30
2019-05-19T23:36:20.121Z,30.03
2019-05-19T23:38:52.358Z,27.60
2019-05-19T23:41:24.669Z,30.77
2019-05-19T23:43:56.959Z,30.43
2019-05-19T23:46:30.021Z,33.20
2019-05-19T23:49:02.322Z,33.50
2019-05-19T23:51:34.583Z,35.20
2019-05-19T23:54:07.877Z,34.20
2019-05-19T23:56:40.124Z,34.80
2019-05-19T23:59:12.345Z,30.90
